sensor_id;sensor_type;location;lat;lon;timestamp;noise_LAeq;noise_LA_min;noise_LA_max;noise_LA01;noise_LA95
48148;Laerm;29352;48.708;9.290;2023-11-19T00:00:30;15.00;15.00;15.00;;
48148;Laerm;29352;48.708;9.290;2023-11-19T00:02:56;15.00;15.00;15.00;;
48148;Laerm;29352;48.708;9.290;2023-11-19T00:05:21;17.28;15.00;49.58;;
48148;Laerm;29352;48.708;9.290;2023-11-19T00:07:46;28.62;15.00;52.29;;
48148;Laerm;29352;48.708;9.290;2023-11-19T00:10:15;38.59;15.00;55.80;;
48148;Laerm;29352;48.708;9.290;2023-11-19T00:12:47;36.86;15.00;55.72;;
48148;Laerm;29352;48.708;9.290;2023-11-19T00:15:14;15.00;15.00;15.00;;
48148;Laerm;29352;48.708;9.290;2023-11-19T00:17:41;35.08;15.00;55.59;;
48148;Laerm;29352;48.708;9.290;2023-11-19T00:20:16;36.60;15.00;55.63;;
48148;Laerm;29352;48.708;9.290;2023-11-19T00:22:42;30.61;15.00;54.69;;
48148;Laerm;29352;48.708;9.290;2023-11-19T00:25:11;47.42;15.00;55.69;;
48148;Laerm;29352;48.708;9.290;2023-11-19T00:27:36;49.15;15.00;55.97;;
48148;Laerm;29352;48.708;9.290;2023-11-19T00:30:06;50.69;15.00;55.69;;
48148;Laerm;29352;48.708;9.290;2023-11-19T00:32:32;52.59;15.00;55.66;;
48148;Laerm;29352;48.708;9.290;2023-11-19T00:34:58;52.65;15.00;55.66;;
48148;Laerm;29352;48.708;9.290;2023-11-19T00:37:23;52.16;15.00;55.07;;
48148;Laerm;29352;48.708;9.290;2023-11-19T00:39:49;51.59;15.00;55.94;;
48148;Laerm;29352;48.708;9.290;2023-11-19T00:42:14;53.34;44.69;55.97;;
48148;Laerm;29352;48.708;9.290;2023-11-19T00:44:40;54.32;50.03;56.02;;
48148;Laerm;29352;48.708;9.290;2023-11-19T00:47:06;54.06;42.93;55.83;;
48148;Laerm;29352;48.708;9.290;2023-11-19T00:49:31;54.23;42.35;56.07;;
48148;Laerm;29352;48.708;9.290;2023-11-19T00:52:00;54.45;44.69;57.90;;
48148;Laerm;29352;48.708;9.290;2023-11-19T00:54:27;53.70;15.00;55.69;;
48148;Laerm;29352;48.708;9.290;2023-11-19T00:56:53;54.06;15.00;55.30;;
48148;Laerm;29352;48.708;9.290;2023-11-19T00:59:19;53.97;15.00;55.25;;
48148;Laerm;29352;48.708;9.290;2023-11-19T01:01:45;53.98;45.94;55.30;;
48148;Laerm;29352;48.708;9.290;2023-11-19T01:04:10;53.48;15.00;61.70;;
48148;Laerm;29352;48.708;9.290;2023-11-19T01:06:36;53.80;51.46;65.42;;
48148;Laerm;29352;48.708;9.290;2023-11-19T01:09:01;53.99;52.47;58.13;;
48148;Laerm;29352;48.708;9.290;2023-11-19T01:11:27;54.41;52.98;57.57;;
48148;Laerm;29352;48.708;9.290;2023-11-19T01:13:53;54.29;53.04;57.06;;
48148;Laerm;29352;48.708;9.290;2023-11-19T01:16:19;54.55;53.34;55.86;;
48148;Laerm;29352;48.708;9.290;2023-11-19T01:18:49;55.31;53.99;56.38;;
48148;Laerm;29352;48.708;9.290;2023-11-19T01:21:15;55.44;54.35;57.61;;
48148;Laerm;29352;48.708;9.290;2023-11-19T01:23:41;55.38;54.03;56.57;;
48148;Laerm;29352;48.708;9.290;2023-11-19T01:26:14;55.26;54.03;56.35;;
48148;Laerm;29352;48.708;9.290;2023-11-19T01:28:40;55.00;53.58;56.07;;
48148;Laerm;29352;48.708;9.290;2023-11-19T01:31:08;55.01;53.94;56.15;;
48148;Laerm;29352;48.708;9.290;2023-11-19T01:33:36;55.19;53.99;56.86;;
48148;Laerm;29352;48.708;9.290;2023-11-19T01:36:02;55.38;54.15;56.62;;
48148;Laerm;29352;48.708;9.290;2023-11-19T01:38:27;55.25;54.03;56.38;;
48148;Laerm;29352;48.708;9.290;2023-11-19T01:40:57;55.18;54.03;56.35;;
48148;Laerm;29352;48.708;9.290;2023-11-19T01:43:39;55.11;53.99;56.18;;
48148;Laerm;29352;48.708;9.290;2023-11-19T01:46:08;55.13;53.99;56.18;;
48148;Laerm;29352;48.708;9.290;2023-11-19T01:48:45;55.10;53.85;56.23;;
48148;Laerm;29352;48.708;9.290;2023-11-19T01:51:12;55.02;53.90;56.15;;
48148;Laerm;29352;48.708;9.290;2023-11-19T01:53:43;54.83;53.72;55.94;;
48148;Laerm;29352;48.708;9.290;2023-11-19T01:56:14;54.75;53.44;56.07;;
48148;Laerm;29352;48.708;9.290;2023-11-19T01:58:44;54.82;53.54;56.18;;
48148;Laerm;29352;48.708;9.290;2023-11-19T02:01:11;54.87;53.68;56.18;;
48148;Laerm;29352;48.708;9.290;2023-11-19T02:03:37;54.84;53.68;55.97;;
48148;Laerm;29352;48.708;9.290;2023-11-19T02:06:04;55.19;53.72;56.55;;
48148;Laerm;29352;48.708;9.290;2023-11-19T02:08:31;55.35;54.19;56.40;;
48148;Laerm;29352;48.708;9.290;2023-11-19T02:10:57;55.31;54.20;56.43;;
48148;Laerm;29352;48.708;9.290;2023-11-19T02:13:25;55.27;54.15;56.38;;
48148;Laerm;29352;48.708;9.290;2023-11-19T02:15:51;55.25;54.11;56.38;;
48148;Laerm;29352;48.708;9.290;2023-11-19T02:18:25;55.24;54.03;56.28;;
48148;Laerm;29352;48.708;9.290;2023-11-19T02:20:54;55.21;54.15;56.33;;
48148;Laerm;29352;48.708;9.290;2023-11-19T02:23:21;55.17;53.90;56.57;;
48148;Laerm;29352;48.708;9.290;2023-11-19T02:28:31;54.80;52.41;55.86;;
48148;Laerm;29352;48.708;9.290;2023-11-19T02:30:58;54.74;53.39;55.97;;
48148;Laerm;29352;48.708;9.290;2023-11-19T02:33:24;54.74;53.44;55.94;;
48148;Laerm;29352;48.708;9.290;2023-11-19T02:35:50;54.83;53.72;55.91;;
48148;Laerm;29352;48.708;9.290;2023-11-19T02:38:16;54.91;53.68;55.94;;
48148;Laerm;29352;48.708;9.290;2023-11-19T02:40:42;55.12;53.90;56.23;;
48148;Laerm;29352;48.708;9.290;2023-11-19T02:43:08;55.02;53.81;56.23;;
48148;Laerm;29352;48.708;9.290;2023-11-19T02:45:34;55.13;53.81;56.15;;
48148;Laerm;29352;48.708;9.290;2023-11-19T02:48:00;55.09;53.99;56.25;;
48148;Laerm;29352;48.708;9.290;2023-11-19T02:50:28;55.05;53.86;56.28;;
48148;Laerm;29352;48.708;9.290;2023-11-19T02:52:55;55.12;54.03;56.20;;
48148;Laerm;29352;48.708;9.290;2023-11-19T02:55:22;55.09;53.86;56.23;;
48148;Laerm;29352;48.708;9.290;2023-11-19T02:57:50;54.25;51.61;55.96;;
48148;Laerm;29352;48.708;9.290;2023-11-19T03:00:22;53.92;51.38;55.75;;
48148;Laerm;29352;48.708;9.290;2023-11-19T03:02:57;53.52;48.95;55.97;;
48148;Laerm;29352;48.708;9.290;2023-11-19T03:05:31;53.06;45.36;55.54;;
48148;Laerm;29352;48.708;9.290;2023-11-19T03:07:56;52.91;45.66;55.51;;
48148;Laerm;29352;48.708;9.290;2023-11-19T03:10:22;52.60;15.00;55.77;;
48148;Laerm;29352;48.708;9.290;2023-11-19T03:12:49;52.60;15.00;55.77;;
48148;Laerm;29352;48.708;9.290;2023-11-19T03:15:15;52.21;15.00;55.69;;
48148;Laerm;29352;48.708;9.290;2023-11-19T03:17:42;52.20;15.00;56.13;;
48148;Laerm;29352;48.708;9.290;2023-11-19T03:20:11;52.69;15.00;55.57;;
48148;Laerm;29352;48.708;9.290;2023-11-19T03:22:41;53.07;15.00;55.94;;
48148;Laerm;29352;48.708;9.290;2023-11-19T03:25:12;53.08;44.31;55.51;;
48148;Laerm;29352;48.708;9.290;2023-11-19T03:27:39;52.82;15.00;55.83;;
48148;Laerm;29352;48.708;9.290;2023-11-19T03:30:08;53.11;42.93;56.07;;
48148;Laerm;29352;48.708;9.290;2023-11-19T03:32:35;53.19;15.00;55.89;;
48148;Laerm;29352;48.708;9.290;2023-11-19T03:35:01;54.56;51.89;55.77;;
48148;Laerm;29352;48.708;9.290;2023-11-19T03:37:27;54.31;52.09;55.94;;
48148;Laerm;29352;48.708;9.290;2023-11-19T03:39:57;54.40;51.75;56.02;;
48148;Laerm;29352;48.708;9.290;2023-11-19T03:42:28;54.75;53.63;55.89;;
48148;Laerm;29352;48.708;9.290;2023-11-19T03:44:54;54.93;53.81;55.97;;
48148;Laerm;29352;48.708;9.290;2023-11-19T03:47:20;54.91;53.68;56.02;;
48148;Laerm;29352;48.708;9.290;2023-11-19T03:49:51;54.84;53.19;56.15;;
48148;Laerm;29352;48.708;9.290;2023-11-19T03:52:18;54.90;53.24;56.18;;
48148;Laerm;29352;48.708;9.290;2023-11-19T03:54:44;55.16;52.82;56.33;;
48148;Laerm;29352;48.708;9.290;2023-11-19T03:57:12;54.38;52.03;56.23;;
48148;Laerm;29352;48.708;9.290;2023-11-19T03:59:38;54.60;52.29;56.13;;
48148;Laerm;29352;48.708;9.290;2023-11-19T04:02:03;54.97;53.14;56.28;;
48148;Laerm;29352;48.708;9.290;2023-11-19T04:04:29;54.95;52.65;56.38;;
48148;Laerm;29352;48.708;9.290;2023-11-19T04:06:55;55.04;53.63;56.10;;
48148;Laerm;29352;48.708;9.290;2023-11-19T04:09:21;54.93;53.09;56.20;;
48148;Laerm;29352;48.708;9.290;2023-11-19T04:11:48;54.90;52.98;56.40;;
48148;Laerm;29352;48.708;9.290;2023-11-19T04:14:13;54.73;52.76;56.15;;
48148;Laerm;29352;48.708;9.290;2023-11-19T04:16:40;54.70;52.53;56.28;;
48148;Laerm;29352;48.708;9.290;2023-11-19T04:19:06;54.62;51.96;56.33;;
48148;Laerm;29352;48.708;9.290;2023-11-19T04:21:33;54.33;51.75;56.10;;
48148;Laerm;29352;48.708;9.290;2023-11-19T04:23:58;54.21;51.75;56.10;;
48148;Laerm;29352;48.708;9.290;2023-11-19T04:26:24;54.49;52.71;55.83;;
48148;Laerm;29352;48.708;9.290;2023-11-19T04:28:49;54.55;53.19;55.94;;
48148;Laerm;29352;48.708;9.290;2023-11-19T04:31:16;54.56;53.09;56.05;;
48148;Laerm;29352;48.708;9.290;2023-11-19T04:33:42;54.61;53.09;56.07;;
48148;Laerm;29352;48.708;9.290;2023-11-19T04:36:09;54.56;53.14;56.28;;
48148;Laerm;29352;48.708;9.290;2023-11-19T04:38:35;54.62;53.19;55.94;;
48148;Laerm;29352;48.708;9.290;2023-11-19T04:41:00;54.67;53.04;55.97;;
48148;Laerm;29352;48.708;9.290;2023-11-19T04:43:26;54.67;53.34;56.05;;
48148;Laerm;29352;48.708;9.290;2023-11-19T04:45:51;54.00;49.34;55.86;;
48148;Laerm;29352;48.708;9.290;2023-11-19T04:48:17;54.63;53.24;55.80;;
48148;Laerm;29352;48.708;9.290;2023-11-19T04:50:42;54.72;53.44;55.97;;
48148;Laerm;29352;48.708;9.290;2023-11-19T04:53:08;54.79;53.24;55.99;;
48148;Laerm;29352;48.708;9.290;2023-11-19T04:55:33;54.95;53.49;56.33;;
48148;Laerm;29352;48.708;9.290;2023-11-19T04:57:58;55.05;53.58;56.23;;
48148;Laerm;29352;48.708;9.290;2023-11-19T05:00:24;55.08;53.99;56.18;;
48148;Laerm;29352;48.708;9.290;2023-11-19T05:02:49;55.07;53.81;56.13;;
48148;Laerm;29352;48.708;9.290;2023-11-19T05:05:16;55.03;53.90;56.05;;
48148;Laerm;29352;48.708;9.290;2023-11-19T05:07:41;55.04;54.03;56.02;;
48148;Laerm;29352;48.708;9.290;2023-11-19T05:10:07;55.04;53.72;56.07;;
48148;Laerm;29352;48.708;9.290;2023-11-19T05:12:33;55.04;53.89;56.20;;
48148;Laerm;29352;48.708;9.290;2023-11-19T05:14:59;55.07;53.94;56.05;;
48148;Laerm;29352;48.708;9.290;2023-11-19T05:17:25;55.10;54.03;56.05;;
48148;Laerm;29352;48.708;9.290;2023-11-19T05:19:50;55.13;54.03;56.13;;
48148;Laerm;29352;48.708;9.290;2023-11-19T05:22:17;55.14;54.04;56.20;;
48148;Laerm;29352;48.708;9.290;2023-11-19T05:24:42;55.16;54.07;56.25;;
48148;Laerm;29352;48.708;9.290;2023-11-19T05:27:09;55.18;53.90;56.28;;
48148;Laerm;29352;48.708;9.290;2023-11-19T05:29:37;55.19;53.90;56.18;;
48148;Laerm;29352;48.708;9.290;2023-11-19T05:32:05;55.21;54.15;56.30;;
48148;Laerm;29352;48.708;9.290;2023-11-19T05:34:30;55.21;54.15;56.28;;
48148;Laerm;29352;48.708;9.290;2023-11-19T05:36:56;55.23;54.19;56.29;;
48148;Laerm;29352;48.708;9.290;2023-11-19T05:39:22;55.26;54.07;56.25;;
48148;Laerm;29352;48.708;9.290;2023-11-19T05:41:48;55.26;54.15;56.38;;
48148;Laerm;29352;48.708;9.290;2023-11-19T05:44:13;55.26;54.19;56.33;;
48148;Laerm;29352;48.708;9.290;2023-11-19T05:46:39;55.27;54.03;56.38;;
48148;Laerm;29352;48.708;9.290;2023-11-19T05:49:11;55.25;53.90;56.35;;
48148;Laerm;29352;48.708;9.290;2023-11-19T05:51:41;55.25;53.99;56.45;;
48148;Laerm;29352;48.708;9.290;2023-11-19T05:54:08;55.24;54.19;56.30;;
48148;Laerm;29352;48.708;9.290;2023-11-19T05:56:35;55.23;54.03;56.33;;
48148;Laerm;29352;48.708;9.290;2023-11-19T05:59:01;55.23;54.03;56.40;;
48148;Laerm;29352;48.708;9.290;2023-11-19T06:01:29;55.23;54.15;56.28;;
48148;Laerm;29352;48.708;9.290;2023-11-19T06:03:55;55.23;54.11;56.28;;
48148;Laerm;29352;48.708;9.290;2023-11-19T06:06:20;55.22;53.94;56.40;;
48148;Laerm;29352;48.708;9.290;2023-11-19T06:08:46;55.23;54.11;56.35;;
48148;Laerm;29352;48.708;9.290;2023-11-19T06:11:12;55.21;53.99;56.25;;
48148;Laerm;29352;48.708;9.290;2023-11-19T06:13:43;55.21;53.94;56.28;;
48148;Laerm;29352;48.708;9.290;2023-11-19T06:16:08;55.21;54.19;56.33;;
48148;Laerm;29352;48.708;9.290;2023-11-19T06:18:34;55.20;53.99;56.20;;
48148;Laerm;29352;48.708;9.290;2023-11-19T06:20:59;55.18;54.23;56.35;;
48148;Laerm;29352;48.708;9.290;2023-11-19T06:23:25;55.15;53.94;56.13;;
48148;Laerm;29352;48.708;9.290;2023-11-19T06:25:50;55.13;54.15;56.25;;
48148;Laerm;29352;48.708;9.290;2023-11-19T06:28:16;55.08;54.03;56.15;;
48148;Laerm;29352;48.708;9.290;2023-11-19T06:30:41;55.04;53.81;56.15;;
48148;Laerm;29352;48.708;9.290;2023-11-19T06:33:07;55.00;54.03;55.97;;
48148;Laerm;29352;48.708;9.290;2023-11-19T06:35:32;54.96;53.77;56.18;;
48148;Laerm;29352;48.708;9.290;2023-11-19T06:38:04;54.93;53.90;56.15;;
48148;Laerm;29352;48.708;9.290;2023-11-19T06:40:33;54.91;53.68;56.02;;
48148;Laerm;29352;48.708;9.290;2023-11-19T06:43:00;54.91;53.86;56.13;;
48148;Laerm;29352;48.708;9.290;2023-11-19T06:45:28;54.88;53.68;55.89;;
48148;Laerm;29352;48.708;9.290;2023-11-19T06:47:53;54.91;53.77;55.99;;
48148;Laerm;29352;48.708;9.290;2023-11-19T06:50:18;54.93;53.90;55.86;;
48148;Laerm;29352;48.708;9.290;2023-11-19T06:52:44;54.92;53.72;55.91;;
48148;Laerm;29352;48.708;9.290;2023-11-19T06:55:10;54.90;53.90;55.89;;
48148;Laerm;29352;48.708;9.290;2023-11-19T06:57:36;54.88;53.72;55.97;;
48148;Laerm;29352;48.708;9.290;2023-11-19T07:00:02;54.88;53.94;55.94;;
48148;Laerm;29352;48.708;9.290;2023-11-19T07:02:28;54.91;53.77;56.07;;
48148;Laerm;29352;48.708;9.290;2023-11-19T07:04:54;54.95;54.03;56.13;;
48148;Laerm;29352;48.708;9.290;2023-11-19T07:07:20;54.98;53.89;56.05;;
48148;Laerm;29352;48.708;9.290;2023-11-19T07:09:45;55.00;54.03;56.15;;
48148;Laerm;29352;48.708;9.290;2023-11-19T07:12:10;55.05;53.81;56.07;;
48148;Laerm;29352;48.708;9.290;2023-11-19T07:14:36;55.06;53.81;56.05;;
48148;Laerm;29352;48.708;9.290;2023-11-19T07:17:02;55.09;53.81;56.15;;
48148;Laerm;29352;48.708;9.290;2023-11-19T07:19:27;55.08;53.99;56.02;;
48148;Laerm;29352;48.708;9.290;2023-11-19T07:21:53;55.09;53.94;56.07;;
48148;Laerm;29352;48.708;9.290;2023-11-19T07:24:20;55.10;53.99;56.25;;
48148;Laerm;29352;48.708;9.290;2023-11-19T07:26:47;55.10;53.99;56.18;;
48148;Laerm;29352;48.708;9.290;2023-11-19T07:29:14;55.10;54.03;56.28;;
48148;Laerm;29352;48.708;9.290;2023-11-19T07:31:42;55.09;53.90;56.18;;
48148;Laerm;29352;48.708;9.290;2023-11-19T07:34:10;55.09;54.07;56.10;;
48148;Laerm;29352;48.708;9.290;2023-11-19T07:36:37;55.09;54.03;56.20;;
48148;Laerm;29352;48.708;9.290;2023-11-19T07:39:04;55.09;53.94;56.15;;
48148;Laerm;29352;48.708;9.290;2023-11-19T07:41:31;55.09;53.94;56.18;;
48148;Laerm;29352;48.708;9.290;2023-11-19T07:43:56;55.09;54.03;56.07;;
48148;Laerm;29352;48.708;9.290;2023-11-19T07:46:21;55.10;53.90;56.30;;
48148;Laerm;29352;48.708;9.290;2023-11-19T07:48:47;55.12;54.07;56.20;;
48148;Laerm;29352;48.708;9.290;2023-11-19T07:53:40;55.14;53.90;56.25;;
48148;Laerm;29352;48.708;9.290;2023-11-19T07:56:07;55.15;54.07;56.13;;
48148;Laerm;29352;48.708;9.290;2023-11-19T07:58:34;55.16;53.94;56.15;;
48148;Laerm;29352;48.708;9.290;2023-11-19T08:01:00;55.16;54.15;56.10;;
48148;Laerm;29352;48.708;9.290;2023-11-19T08:03:27;55.18;53.99;56.18;;
48148;Laerm;29352;48.708;9.290;2023-11-19T08:05:55;55.18;54.11;56.38;;
48148;Laerm;29352;48.708;9.290;2023-11-19T08:08:22;55.17;54.23;56.15;;
48148;Laerm;29352;48.708;9.290;2023-11-19T08:10:47;55.16;53.99;56.43;;
48148;Laerm;29352;48.708;9.290;2023-11-19T08:13:13;55.17;54.15;56.23;;
48148;Laerm;29352;48.708;9.290;2023-11-19T08:15:39;55.19;54.15;56.20;;
48148;Laerm;29352;48.708;9.290;2023-11-19T08:18:05;55.21;54.11;56.23;;
48148;Laerm;29352;48.708;9.290;2023-11-19T08:20:32;55.23;54.15;56.40;;
48148;Laerm;29352;48.708;9.290;2023-11-19T08:22:58;55.26;54.07;56.30;;
48148;Laerm;29352;48.708;9.290;2023-11-19T08:25:23;55.27;54.11;56.33;;
48148;Laerm;29352;48.708;9.290;2023-11-19T08:27:48;55.31;54.31;56.28;;
48148;Laerm;29352;48.708;9.290;2023-11-19T08:30:14;55.32;54.20;56.48;;
48148;Laerm;29352;48.708;9.290;2023-11-19T08:32:39;55.34;54.08;56.59;;
48148;Laerm;29352;48.708;9.290;2023-11-19T08:35:05;55.33;54.27;56.43;;
48148;Laerm;29352;48.708;9.290;2023-11-19T08:37:31;55.34;54.27;56.35;;
48148;Laerm;29352;48.708;9.290;2023-11-19T08:39:56;55.40;54.27;58.34;;
48148;Laerm;29352;48.708;9.290;2023-11-19T08:42:22;55.44;54.15;56.84;;
48148;Laerm;29352;48.708;9.290;2023-11-19T08:44:51;55.25;53.99;56.38;;
48148;Laerm;29352;48.708;9.290;2023-11-19T08:47:19;54.86;53.68;56.05;;
48148;Laerm;29352;48.708;9.290;2023-11-19T08:49:45;54.86;53.63;55.89;;
48148;Laerm;29352;48.708;9.290;2023-11-19T08:52:11;55.05;53.90;56.20;;
48148;Laerm;29352;48.708;9.290;2023-11-19T08:54:36;55.02;53.81;56.18;;
48148;Laerm;29352;48.708;9.290;2023-11-19T08:57:03;55.07;53.90;56.13;;
48148;Laerm;29352;48.708;9.290;2023-11-19T08:59:29;55.15;54.03;56.43;;
48148;Laerm;29352;48.708;9.290;2023-11-19T09:01:55;55.21;54.15;56.43;;
48148;Laerm;29352;48.708;9.290;2023-11-19T09:04:20;55.27;54.23;56.33;;
48148;Laerm;29352;48.708;9.290;2023-11-19T09:06:49;55.30;54.19;56.76;;
48148;Laerm;29352;48.708;9.290;2023-11-19T09:09:15;55.30;54.19;56.35;;
48148;Laerm;29352;48.708;9.290;2023-11-19T09:11:41;55.35;54.19;56.59;;
48148;Laerm;29352;48.708;9.290;2023-11-19T09:14:06;55.24;54.19;56.25;;
48148;Laerm;29352;48.708;9.290;2023-11-19T09:16:32;55.13;54.03;56.57;;
48148;Laerm;29352;48.708;9.290;2023-11-19T09:18:58;55.01;53.63;56.10;;
48148;Laerm;29352;48.708;9.290;2023-11-19T09:21:27;55.03;53.90;56.15;;
48148;Laerm;29352;48.708;9.290;2023-11-19T09:23:55;55.08;53.99;56.30;;
48148;Laerm;29352;48.708;9.290;2023-11-19T09:26:20;55.06;53.86;56.28;;
48148;Laerm;29352;48.708;9.290;2023-11-19T09:28:46;54.98;53.77;56.02;;
48148;Laerm;29352;48.708;9.290;2023-11-19T09:31:18;55.00;53.97;56.07;;
48148;Laerm;29352;48.708;9.290;2023-11-19T09:33:44;55.05;54.03;56.20;;
48148;Laerm;29352;48.708;9.290;2023-11-19T09:36:12;55.01;53.86;56.07;;
48148;Laerm;29352;48.708;9.290;2023-11-19T09:38:40;55.02;53.77;56.13;;
48148;Laerm;29352;48.708;9.290;2023-11-19T09:41:06;55.04;53.81;56.35;;
48148;Laerm;29352;48.708;9.290;2023-11-19T09:43:34;55.04;53.81;56.48;;
48148;Laerm;29352;48.708;9.290;2023-11-19T09:46:06;54.94;53.77;56.05;;
48148;Laerm;29352;48.708;9.290;2023-11-19T09:48:36;54.93;53.81;56.25;;
48148;Laerm;29352;48.708;9.290;2023-11-19T09:51:07;54.70;53.54;55.80;;
48148;Laerm;29352;48.708;9.290;2023-11-19T09:53:34;54.82;53.63;55.86;;
48148;Laerm;29352;48.708;9.290;2023-11-19T09:56:03;54.90;53.86;56.13;;
48148;Laerm;29352;48.708;9.290;2023-11-19T09:58:30;54.58;53.49;55.66;;
48148;Laerm;29352;48.708;9.290;2023-11-19T10:00:57;54.30;53.19;55.42;;
48148;Laerm;29352;48.708;9.290;2023-11-19T10:03:34;54.35;53.29;55.48;;
48148;Laerm;29352;48.708;9.290;2023-11-19T10:06:10;54.30;52.76;55.51;;
48148;Laerm;29352;48.708;9.290;2023-11-19T10:08:42;54.20;52.88;55.33;;
48148;Laerm;29352;48.708;9.290;2023-11-19T10:11:09;54.15;53.09;55.33;;
48148;Laerm;29352;48.708;9.290;2023-11-19T10:13:37;53.98;52.82;55.01;;
48148;Laerm;29352;48.708;9.290;2023-11-19T10:16:09;53.95;52.98;55.07;;
48148;Laerm;29352;48.708;9.290;2023-11-19T10:18:37;54.06;52.88;55.30;;
48148;Laerm;29352;48.708;9.290;2023-11-19T10:21:06;54.25;53.09;55.30;;
48148;Laerm;29352;48.708;9.290;2023-11-19T10:23:55;54.26;52.98;55.36;;
48148;Laerm;29352;48.708;9.290;2023-11-19T10:26:26;54.14;52.95;55.33;;
48148;Laerm;29352;48.708;9.290;2023-11-19T10:28:53;54.07;52.88;55.07;;
48148;Laerm;29352;48.708;9.290;2023-11-19T10:31:20;54.06;52.88;55.11;;
48148;Laerm;29352;48.708;9.290;2023-11-19T10:33:51;54.17;52.93;55.36;;
48148;Laerm;29352;48.708;9.290;2023-11-19T10:36:17;54.23;52.93;55.30;;
48148;Laerm;29352;48.708;9.290;2023-11-19T10:38:55;54.28;53.09;55.48;;
48148;Laerm;29352;48.708;9.290;2023-11-19T10:41:31;54.30;53.14;55.27;;
48148;Laerm;29352;48.708;9.290;2023-11-19T10:43:59;54.38;52.98;55.42;;
48148;Laerm;29352;48.708;9.290;2023-11-19T10:46:40;54.22;52.98;55.30;;
48148;Laerm;29352;48.708;9.290;2023-11-19T10:49:07;53.99;52.76;55.27;;
48148;Laerm;29352;48.708;9.290;2023-11-19T10:51:33;54.05;52.88;55.17;;
48148;Laerm;29352;48.708;9.290;2023-11-19T10:54:03;53.91;52.88;54.94;;
48148;Laerm;29352;48.708;9.290;2023-11-19T10:56:34;53.89;52.76;54.90;;
48148;Laerm;29352;48.708;9.290;2023-11-19T10:59:01;53.75;52.53;56.91;;
48148;Laerm;29352;48.708;9.290;2023-11-19T11:01:48;53.77;52.59;55.01;;
48148;Laerm;29352;48.708;9.290;2023-11-19T11:04:25;53.78;52.47;54.94;;
48148;Laerm;29352;48.708;9.290;2023-11-19T11:06:54;53.78;52.53;54.90;;
48148;Laerm;29352;48.708;9.290;2023-11-19T11:09:21;53.84;52.41;56.95;;
48148;Laerm;29352;48.708;9.290;2023-11-19T11:11:49;53.73;52.47;54.80;;
48148;Laerm;29352;48.708;9.290;2023-11-19T11:14:18;53.50;52.16;54.52;;
48148;Laerm;29352;48.708;9.290;2023-11-19T11:16:48;53.57;52.22;54.69;;
48148;Laerm;29352;48.708;9.290;2023-11-19T11:19:16;53.61;52.22;54.54;;
48148;Laerm;29352;48.708;9.290;2023-11-19T11:21:51;53.59;52.16;54.62;;
48148;Laerm;29352;48.708;9.290;2023-11-19T11:27:41;53.47;52.16;54.51;;
48148;Laerm;29352;48.708;9.290;2023-11-19T11:33:52;53.51;52.22;54.51;;
48148;Laerm;29352;48.708;9.290;2023-11-19T11:36:23;53.54;52.16;54.54;;
48148;Laerm;29352;48.708;9.290;2023-11-19T11:38:50;53.55;52.35;54.62;;
48148;Laerm;29352;48.708;9.290;2023-11-19T11:41:23;53.56;52.42;54.76;;
48148;Laerm;29352;48.708;9.290;2023-11-19T11:43:52;53.64;52.53;54.69;;
48148;Laerm;29352;48.708;9.290;2023-11-19T11:49:06;53.65;52.47;54.65;;
48148;Laerm;29352;48.708;9.290;2023-11-19T11:51:58;53.62;52.41;54.76;;
48148;Laerm;29352;48.708;9.290;2023-11-19T11:59:47;53.47;51.96;54.51;;
48148;Laerm;29352;48.708;9.290;2023-11-19T12:02:20;53.42;52.09;54.58;;
48148;Laerm;29352;48.708;9.290;2023-11-19T12:04:50;53.35;52.16;54.31;;
48148;Laerm;29352;48.708;9.290;2023-11-19T12:07:22;53.33;52.16;54.51;;
48148;Laerm;29352;48.708;9.290;2023-11-19T12:09:53;53.28;52.22;54.35;;
48148;Laerm;29352;48.708;9.290;2023-11-19T12:12:30;53.34;52.03;54.39;;
48148;Laerm;29352;48.708;9.290;2023-11-19T12:20:08;53.15;51.89;54.27;;
48148;Laerm;29352;48.708;9.290;2023-11-19T12:22:39;53.23;51.89;54.23;;
48148;Laerm;29352;48.708;9.290;2023-11-19T12:25:10;53.27;51.75;54.31;;
48148;Laerm;29352;48.708;9.290;2023-11-19T12:27:42;53.30;51.89;54.47;;
48148;Laerm;29352;48.708;9.290;2023-11-19T12:30:08;53.33;51.82;54.35;;
48148;Laerm;29352;48.708;9.290;2023-11-19T12:32:42;53.33;52.03;54.39;;
48148;Laerm;29352;48.708;9.290;2023-11-19T12:35:10;53.29;51.96;54.27;;
48148;Laerm;29352;48.708;9.290;2023-11-19T12:37:47;53.32;51.46;54.58;;
48148;Laerm;29352;48.708;9.290;2023-11-19T12:40:19;53.34;52.16;54.43;;
48148;Laerm;29352;48.708;9.290;2023-11-19T12:42:46;53.35;52.22;54.42;;
48148;Laerm;29352;48.708;9.290;2023-11-19T12:45:13;53.34;52.09;54.31;;
48148;Laerm;29352;48.708;9.290;2023-11-19T12:47:45;53.31;51.82;55.60;;
48148;Laerm;29352;48.708;9.290;2023-11-19T12:50:15;53.25;52.03;54.31;;
48148;Laerm;29352;48.708;9.290;2023-11-19T12:52:43;53.18;51.96;54.54;;
48148;Laerm;29352;48.708;9.290;2023-11-19T12:57:52;53.22;52.03;54.39;;
48148;Laerm;29352;48.708;9.290;2023-11-19T13:00:26;53.13;52.00;54.47;;
48148;Laerm;29352;48.708;9.290;2023-11-19T13:02:54;53.12;51.89;54.80;;
48148;Laerm;29352;48.708;9.290;2023-11-19T13:05:30;53.12;51.82;54.07;;
48148;Laerm;29352;48.708;9.290;2023-11-19T13:08:06;53.09;51.82;54.19;;
48148;Laerm;29352;48.708;9.290;2023-11-19T13:13:15;52.98;51.61;54.11;;
48148;Laerm;29352;48.708;9.290;2023-11-19T13:15:41;52.98;51.75;53.99;;
48148;Laerm;29352;48.708;9.290;2023-11-19T13:18:06;53.02;51.82;54.31;;
48148;Laerm;29352;48.708;9.290;2023-11-19T13:20:32;52.94;51.53;54.31;;
48148;Laerm;29352;48.708;9.290;2023-11-19T13:23:01;52.93;50.98;56.97;;
48148;Laerm;29352;48.708;9.290;2023-11-19T13:25:30;53.00;51.38;57.04;;
48148;Laerm;29352;48.708;9.290;2023-11-19T13:27:56;52.97;51.46;54.07;;
48148;Laerm;29352;48.708;9.290;2023-11-19T13:30:23;52.92;51.38;54.03;;
48148;Laerm;29352;48.708;9.290;2023-11-19T13:32:50;52.93;51.61;54.03;;
48148;Laerm;29352;48.708;9.290;2023-11-19T13:35:17;52.95;51.61;54.20;;
48148;Laerm;29352;48.708;9.290;2023-11-19T13:37:45;52.90;51.30;54.23;;
48148;Laerm;29352;48.708;9.290;2023-11-19T13:40:12;52.88;49.08;61.18;;
48148;Laerm;29352;48.708;9.290;2023-11-19T13:42:42;52.84;50.23;59.47;;
48148;Laerm;29352;48.708;9.290;2023-11-19T13:45:12;52.85;51.46;54.15;;
48148;Laerm;29352;48.708;9.290;2023-11-19T13:47:43;52.94;51.55;54.15;;
48148;Laerm;29352;48.708;9.290;2023-11-19T13:50:10;52.99;51.75;54.19;;
48148;Laerm;29352;48.708;9.290;2023-11-19T13:52:41;53.00;51.68;54.11;;
48148;Laerm;29352;48.708;9.290;2023-11-19T13:55:09;53.05;51.96;54.19;;
48148;Laerm;29352;48.708;9.290;2023-11-19T13:57:36;53.05;51.68;54.03;;
48148;Laerm;29352;48.708;9.290;2023-11-19T14:00:05;53.04;51.61;54.11;;
48148;Laerm;29352;48.708;9.290;2023-11-19T14:02:41;53.01;51.82;54.11;;
48148;Laerm;29352;48.708;9.290;2023-11-19T14:05:08;52.98;51.46;54.11;;
48148;Laerm;29352;48.708;9.290;2023-11-19T14:07:33;52.98;51.30;53.99;;
48148;Laerm;29352;48.708;9.290;2023-11-19T14:09:59;52.95;51.46;53.99;;
48148;Laerm;29352;48.708;9.290;2023-11-19T14:12:24;52.91;51.46;53.94;;
48148;Laerm;29352;48.708;9.290;2023-11-19T14:14:50;52.92;51.53;54.03;;
48148;Laerm;29352;48.708;9.290;2023-11-19T14:17:16;52.94;51.53;54.11;;